createdAt,value
2023-11-01T00:00:56.925Z,1.90
2023-11-01T00:03:23.443Z,2.50
2023-11-01T00:05:50.134Z,2.40
2023-11-01T00:08:16.631Z,1.60
2023-11-01T00:10:42.974Z,1.60
2023-11-01T00:13:09.313Z,1.70
2023-11-01T00:15:35.727Z,1.58
2023-11-01T00:18:02.162Z,1.90
2023-11-01T00:20:28.604Z,1.70
2023-11-01T00:22:55.131Z,2.00
2023-11-01T00:25:21.487Z,1.58
2023-11-01T00:27:47.815Z,1.83
2023-11-01T00:30:14.273Z,2.30
2023-11-01T00:32:40.881Z,1.92
2023-11-01T00:35:07.902Z,2.63
2023-11-01T00:37:34.381Z,1.50
2023-11-01T00:40:00.727Z,2.30
2023-11-01T00:42:27.379Z,1.73
2023-11-01T00:44:53.792Z,1.80
2023-11-01T00:47:20.225Z,1.70
2023-11-01T00:49:46.627Z,1.67
2023-11-01T00:52:13.083Z,1.63
2023-11-01T00:54:39.445Z,1.58
2023-11-01T00:57:05.858Z,1.52
2023-11-01T00:59:32.246Z,1.48
2023-11-01T01:01:58.590Z,1.40
2023-11-01T01:04:24.984Z,1.65
2023-11-01T01:06:51.369Z,1.58
2023-11-01T01:09:17.727Z,1.23
2023-11-01T01:11:44.360Z,1.33
2023-11-01T01:14:10.730Z,1.70
2023-11-01T01:16:37.820Z,1.33
2023-11-01T01:19:04.785Z,1.40
2023-11-01T01:21:31.153Z,1.42
2023-11-01T01:23:57.598Z,1.58
2023-11-01T01:26:23.939Z,1.13
2023-11-01T01:28:50.317Z,1.15
2023-11-01T01:31:16.677Z,2.80
2023-11-01T01:33:46.379Z,0.90
2023-11-01T01:36:13.002Z,1.48
2023-11-01T01:38:39.454Z,1.10
2023-11-01T01:41:06.014Z,1.08
2023-11-01T01:43:32.915Z,1.67
2023-11-01T01:46:10.092Z,2.08
2023-11-01T01:48:37.141Z,1.10
2023-11-01T01:51:04.607Z,1.83
2023-11-01T01:53:32.666Z,1.50
2023-11-01T01:55:59.489Z,1.30
2023-11-01T01:58:27.409Z,1.63
2023-11-01T02:00:54.013Z,1.08
2023-11-01T02:03:20.486Z,1.52
2023-11-01T02:05:46.951Z,1.02
2023-11-01T02:08:13.378Z,1.25
2023-11-01T02:10:39.813Z,1.27
2023-11-01T02:13:12.945Z,2.95
2023-11-01T02:15:40.150Z,1.20
2023-11-01T02:18:06.592Z,1.05
2023-11-01T02:20:34.254Z,1.55
2023-11-01T02:23:00.841Z,1.70
2023-11-01T02:25:27.173Z,1.02
2023-11-01T02:27:53.494Z,1.45
2023-11-01T02:30:20.788Z,1.35
2023-11-01T02:32:49.262Z,1.00
2023-11-01T02:35:19.532Z,1.25
2023-11-01T02:37:45.961Z,0.85
2023-11-01T02:40:12.997Z,1.73
2023-11-01T02:42:43.193Z,1.48
2023-11-01T02:45:10.522Z,1.00
2023-11-01T02:47:37.550Z,1.20
2023-11-01T02:50:06.575Z,1.13
2023-11-01T02:52:36.443Z,1.25
2023-11-01T02:55:03.494Z,1.08
2023-11-01T02:57:29.827Z,2.10
2023-11-01T02:59:56.168Z,1.45
2023-11-01T03:02:22.515Z,1.73
2023-11-01T03:04:48.848Z,1.42
2023-11-01T03:07:15.195Z,1.23
2023-11-01T03:09:41.557Z,1.27
2023-11-01T03:12:08.069Z,1.48
2023-11-01T03:14:34.619Z,1.52
2023-11-01T03:17:00.971Z,1.85
2023-11-01T03:19:27.322Z,1.83
2023-11-01T03:21:55.226Z,1.70
2023-11-01T03:24:22.818Z,1.83
2023-11-01T03:26:49.159Z,1.33
2023-11-01T03:29:15.505Z,1.70
2023-11-01T03:31:41.892Z,1.95
2023-11-01T03:34:08.248Z,1.67
2023-11-01T03:36:34.587Z,1.63
2023-11-01T03:39:00.934Z,1.38
2023-11-01T03:41:27.324Z,1.27
2023-11-01T03:43:53.710Z,1.73
2023-11-01T03:46:20.444Z,1.65
2023-11-01T03:48:49.569Z,1.45
2023-11-01T03:51:15.901Z,1.08
2023-11-01T03:53:42.277Z,1.15
2023-11-01T03:56:08.979Z,1.15
2023-11-01T03:58:35.338Z,1.08
2023-11-01T04:01:01.760Z,1.30
2023-11-01T04:03:28.177Z,1.02
2023-11-01T04:05:55.937Z,1.33
2023-11-01T04:08:22.477Z,1.02
2023-11-01T04:10:48.901Z,1.02
2023-11-01T04:13:15.229Z,1.42
2023-11-01T04:15:42.051Z,1.13
2023-11-01T04:18:08.702Z,1.13
2023-11-01T04:20:35.081Z,1.38
2023-11-01T04:23:01.430Z,1.35
2023-11-01T04:25:29.224Z,1.17
2023-11-01T04:27:56.857Z,1.45
2023-11-01T04:30:24.222Z,1.35
2023-11-01T04:32:53.322Z,1.23
2023-11-01T04:35:19.768Z,1.45
2023-11-01T04:37:46.154Z,1.30
2023-11-01T04:40:13.218Z,1.15
2023-11-01T04:42:40.390Z,1.00
2023-11-01T04:45:07.602Z,1.35
2023-11-01T04:47:36.785Z,1.42
2023-11-01T04:50:03.948Z,5.88
2023-11-01T04:52:30.273Z,1.50
2023-11-01T04:54:56.602Z,1.40
2023-11-01T04:57:22.958Z,1.55
2023-11-01T04:59:49.329Z,1.35
2023-11-01T05:02:15.714Z,1.58
2023-11-01T05:04:42.057Z,2.05
2023-11-01T05:07:08.405Z,1.45
2023-11-01T05:09:34.734Z,1.67
2023-11-01T05:12:01.137Z,1.88
2023-11-01T05:14:27.590Z,1.73
2023-11-01T05:16:53.938Z,2.00
2023-11-01T05:19:20.599Z,3.08
2023-11-01T05:21:46.947Z,1.60
2023-11-01T05:24:13.268Z,1.83
2023-11-01T05:26:39.662Z,1.73
2023-11-01T05:29:06.308Z,1.77
2023-11-01T05:31:35.742Z,1.92
2023-11-01T05:34:02.566Z,1.63
2023-11-01T05:36:28.955Z,1.85
2023-11-01T05:38:55.809Z,1.90
2023-11-01T05:41:22.405Z,1.55
2023-11-01T05:43:48.831Z,1.58
2023-11-01T05:46:15.455Z,1.70
2023-11-01T05:48:41.861Z,1.80
2023-11-01T05:51:08.217Z,2.85
2023-11-01T05:53:34.707Z,1.75
2023-11-01T05:56:08.367Z,1.58
2023-11-01T05:58:36.637Z,1.63
2023-11-01T06:01:03.313Z,1.70
2023-11-01T06:03:29.842Z,1.45
2023-11-01T06:05:59.061Z,1.15
2023-11-01T06:08:25.890Z,1.23
2023-11-01T06:10:52.742Z,2.83
2023-11-01T06:13:19.537Z,1.83
2023-11-01T06:15:45.889Z,2.28
2023-11-01T06:18:12.304Z,1.40
2023-11-01T06:20:38.744Z,3.05
2023-11-01T06:23:11.217Z,1.67
2023-11-01T06:25:38.312Z,1.60
2023-11-01T06:28:04.936Z,1.80
2023-11-01T06:30:31.385Z,1.90
2023-11-01T06:32:58.102Z,2.95
2023-11-01T06:35:24.857Z,1.50
2023-11-01T06:37:51.220Z,1.88
2023-11-01T06:40:17.577Z,1.35
2023-11-01T06:42:43.922Z,1.10
2023-11-01T06:45:11.813Z,1.52
2023-11-01T06:47:38.329Z,1.40
2023-11-01T06:50:04.871Z,1.30
2023-11-01T06:52:31.334Z,1.20
2023-11-01T06:54:58.445Z,1.42
2023-11-01T06:57:24.817Z,1.15
2023-11-01T06:59:51.266Z,1.40
2023-11-01T07:02:17.615Z,1.48
2023-11-01T07:04:44.054Z,1.30
2023-11-01T07:07:12.176Z,1.10
2023-11-01T07:09:40.460Z,1.17
2023-11-01T07:12:06.878Z,1.40
2023-11-01T07:14:33.356Z,1.00
2023-11-01T07:16:59.698Z,1.17
2023-11-01T07:19:26.007Z,1.50
2023-11-01T07:21:52.585Z,1.13
2023-11-01T07:24:18.926Z,1.23
2023-11-01T07:26:45.396Z,1.60
2023-11-01T07:29:11.770Z,1.52
2023-11-01T07:31:38.128Z,1.08
2023-11-01T07:34:04.504Z,1.13
2023-11-01T07:36:30.895Z,2.38
2023-11-01T07:38:57.300Z,1.88
2023-11-01T07:41:23.695Z,1.35
2023-11-01T07:43:50.057Z,0.90
2023-11-01T07:46:16.574Z,1.15
2023-11-01T07:48:43.086Z,1.10
2023-11-01T07:51:09.441Z,0.88
2023-11-01T07:53:36.051Z,1.00
2023-11-01T07:56:02.667Z,1.02
2023-11-01T07:58:30.478Z,1.33
2023-11-01T08:00:56.887Z,1.38
2023-11-01T08:03:25.237Z,1.20
2023-11-01T08:05:51.912Z,1.20
2023-11-01T08:08:18.601Z,1.23
2023-11-01T08:10:44.943Z,0.93
2023-11-01T08:13:11.365Z,1.00
2023-11-01T08:15:37.719Z,1.08
2023-11-01T08:18:04.265Z,0.75
2023-11-01T08:20:33.826Z,1.00
2023-11-01T08:23:00.231Z,0.80
2023-11-01T08:25:26.706Z,0.90
2023-11-01T08:27:53.075Z,0.90
2023-11-01T08:30:19.500Z,0.70
2023-11-01T08:32:46.140Z,0.85
2023-11-01T08:35:12.699Z,1.52
2023-11-01T08:37:39.459Z,0.93
2023-11-01T08:40:06.116Z,2.00
2023-11-01T08:42:32.832Z,0.75
2023-11-01T08:44:59.208Z,0.73
2023-11-01T08:47:36.107Z,0.88
2023-11-01T08:50:03.161Z,0.82
2023-11-01T08:52:30.245Z,0.90
2023-11-01T08:54:58.858Z,1.10
2023-11-01T08:57:25.290Z,0.82
2023-11-01T08:59:52.183Z,1.10
2023-11-01T09:02:19.194Z,1.00
2023-11-01T09:04:45.710Z,1.23
2023-11-01T09:07:12.153Z,0.85
2023-11-01T09:09:38.565Z,0.85
2023-11-01T09:12:05.065Z,0.85
2023-11-01T09:14:31.422Z,0.70
2023-11-01T09:16:57.854Z,0.98
2023-11-01T09:19:24.248Z,0.80
2023-11-01T09:21:50.593Z,0.80
2023-11-01T09:24:16.973Z,0.80
2023-11-01T09:26:44.143Z,1.10
2023-11-01T09:29:11.550Z,0.60
2023-11-01T09:31:37.900Z,0.70
2023-11-01T09:34:04.616Z,0.80
2023-11-01T09:36:31.115Z,0.57
2023-11-01T09:38:57.452Z,0.60
2023-11-01T09:41:32.974Z,0.63
2023-11-01T09:44:02.726Z,0.55
2023-11-01T09:46:29.098Z,0.60
2023-11-01T09:48:56.222Z,0.60
2023-11-01T09:51:22.938Z,0.50
2023-11-01T09:53:49.330Z,0.45
2023-11-01T09:56:16.471Z,1.70
2023-11-01T09:58:42.993Z,1.00
2023-11-01T10:01:09.356Z,0.50
2023-11-01T10:03:36.078Z,0.60
2023-11-01T10:06:02.579Z,0.43
2023-11-01T10:08:28.983Z,0.47
2023-11-01T10:11:01.030Z,0.47
2023-11-01T10:13:34.633Z,0.50
2023-11-01T10:16:01.035Z,0.38
2023-11-01T10:18:27.490Z,0.45
2023-11-01T10:20:53.868Z,0.35
2023-11-01T10:23:20.199Z,0.50
2023-11-01T10:25:46.635Z,1.42
2023-11-01T10:28:14.016Z,0.40
2023-11-01T10:30:45.028Z,0.40
2023-11-01T10:33:12.206Z,0.45
2023-11-01T10:35:38.732Z,0.40
2023-11-01T10:38:05.214Z,0.50
2023-11-01T10:40:31.818Z,0.43
2023-11-01T10:43:07.137Z,0.60
2023-11-01T10:48:03.165Z,0.32
2023-11-01T10:50:34.223Z,0.70
2023-11-01T10:53:01.208Z,0.50
2023-11-01T10:55:29.890Z,0.40
2023-11-01T10:57:56.600Z,0.40
2023-11-01T11:00:48.150Z,0.40
2023-11-01T11:03:33.867Z,0.30
2023-11-01T11:06:05.293Z,0.25
2023-11-01T11:08:31.896Z,0.30
2023-11-01T11:11:15.974Z,0.25
2023-11-01T11:13:43.916Z,0.40
2023-11-01T11:16:14.252Z,0.28
2023-11-01T11:18:44.912Z,1.58
2023-11-01T11:21:31.375Z,0.28
2023-11-01T11:23:58.547Z,0.93
2023-11-01T11:26:40.105Z,0.40
2023-11-01T11:29:26.438Z,0.30
2023-11-01T11:31:58.985Z,0.20
2023-11-01T11:34:26.216Z,0.25
2023-11-01T11:37:06.300Z,0.20
2023-11-01T11:39:58.966Z,0.20
2023-11-01T11:42:45.617Z,0.85
2023-11-01T11:45:24.250Z,0.20
2023-11-01T11:47:50.679Z,1.00
2023-11-01T11:50:21.001Z,0.20
2023-11-01T11:52:47.423Z,0.28
2023-11-01T11:55:13.804Z,0.20
2023-11-01T11:57:40.203Z,0.10
2023-11-01T12:00:09.000Z,0.13
2023-11-01T12:02:36.067Z,0.10
2023-11-01T12:05:04.009Z,0.00
2023-11-01T12:07:30.367Z,0.55
2023-11-01T12:09:57.465Z,0.82
2023-11-01T12:12:25.289Z,0.00
2023-11-01T12:14:59.339Z,0.20
2023-11-01T12:17:25.816Z,0.10
2023-11-01T12:19:52.276Z,0.00
2023-11-01T12:22:18.621Z,0.00
2023-11-01T12:24:47.945Z,0.10
2023-11-01T12:27:15.485Z,0.00
2023-11-01T12:29:48.806Z,0.00
2023-11-01T12:32:24.862Z,0.10
2023-11-01T12:34:51.376Z,0.00
2023-11-01T12:37:22.003Z,0.00
2023-11-01T12:40:11.814Z,0.05
2023-11-01T12:42:47.216Z,1.00
2023-11-01T12:45:14.611Z,1.33
2023-11-01T12:47:50.251Z,0.00
2023-11-01T12:50:18.277Z,0.30
2023-11-01T12:52:44.783Z,0.00
2023-11-01T12:55:11.565Z,0.10
2023-11-01T12:57:39.001Z,0.10
2023-11-01T13:00:06.453Z,0.10
2023-11-01T13:02:32.978Z,0.00
2023-11-01T13:04:59.382Z,0.00
2023-11-01T13:07:25.720Z,0.00
2023-11-01T13:09:52.077Z,0.00
2023-11-01T13:12:18.391Z,0.10
2023-11-01T13:14:44.978Z,0.00
2023-11-01T13:17:11.340Z,0.03
2023-11-01T13:19:37.750Z,0.43
2023-11-01T13:22:04.360Z,0.00
2023-11-01T13:24:30.690Z,0.00
2023-11-01T13:26:57.047Z,0.20
2023-11-01T13:29:23.446Z,0.03
2023-11-01T13:31:52.610Z,1.08
2023-11-01T13:34:20.259Z,0.00
2023-11-01T13:36:46.586Z,0.10
2023-11-01T13:39:13.169Z,0.10
2023-11-01T13:41:39.525Z,1.27
2023-11-01T13:44:05.916Z,0.00
2023-11-01T13:46:32.302Z,0.03
2023-11-01T13:48:58.634Z,0.05
2023-11-01T13:51:24.970Z,0.10
2023-11-01T13:53:51.378Z,0.43
2023-11-01T13:56:17.705Z,0.00
2023-11-01T13:58:48.141Z,0.95
2023-11-01T14:01:14.489Z,0.10
2023-11-01T14:03:41.071Z,0.10
2023-11-01T14:06:07.812Z,0.13
2023-11-01T14:08:34.250Z,0.10
2023-11-01T14:11:00.937Z,0.15
2023-11-01T14:13:28.281Z,0.10
2023-11-01T14:15:56.600Z,0.20
2023-11-01T14:18:23.203Z,0.10
2023-11-01T14:20:52.736Z,0.10
2023-11-01T14:23:19.699Z,0.10
2023-11-01T14:25:46.232Z,0.10
2023-11-01T14:28:13.425Z,0.90
2023-11-01T14:30:40.305Z,0.10
2023-11-01T14:33:06.803Z,0.70
2023-11-01T14:35:33.250Z,0.15
2023-11-01T14:38:00.422Z,0.10
2023-11-01T14:40:28.436Z,0.10
2023-11-01T14:42:54.887Z,1.00
2023-11-01T14:45:21.261Z,0.20
2023-11-01T14:47:47.726Z,0.20
2023-11-01T14:50:14.186Z,0.20
2023-11-01T14:52:41.005Z,0.45
2023-11-01T14:55:07.517Z,0.20
2023-11-01T14:57:34.941Z,0.20
2023-11-01T15:00:06.466Z,0.20
2023-11-01T15:02:33.133Z,0.20
2023-11-01T15:04:59.506Z,0.30
2023-11-01T15:07:25.827Z,0.20
2023-11-01T15:09:52.334Z,0.30
2023-11-01T15:12:19.515Z,0.20
2023-11-01T15:14:45.907Z,0.20
2023-11-01T15:17:12.484Z,0.40
2023-11-01T15:19:38.832Z,0.20
2023-11-01T15:22:05.371Z,0.20
2023-11-01T15:24:31.740Z,0.20
2023-11-01T15:27:00.523Z,1.38
2023-11-01T15:29:28.035Z,0.20
2023-11-01T15:31:54.741Z,0.15
2023-11-01T15:34:21.091Z,0.10
2023-11-01T15:36:48.602Z,0.20
2023-11-01T15:39:15.038Z,0.25
2023-11-01T15:41:41.553Z,0.30
2023-11-01T15:44:08.127Z,0.20
2023-11-01T15:46:36.708Z,0.50
2023-11-01T15:49:04.505Z,0.25
2023-11-01T15:51:30.849Z,0.40
2023-11-01T15:53:57.305Z,0.50
2023-11-01T15:56:23.787Z,0.50
2023-11-01T15:58:50.225Z,0.30
2023-11-01T16:01:16.607Z,0.40
2023-11-01T16:03:43.601Z,0.40
2023-11-01T16:06:10.146Z,0.30
2023-11-01T16:08:36.654Z,0.30
2023-11-01T16:11:03.116Z,0.30
2023-11-01T16:13:29.526Z,0.22
2023-11-01T16:15:55.925Z,0.30
2023-11-01T16:18:22.587Z,0.43
2023-11-01T16:20:49.007Z,0.20
2023-11-01T16:23:15.346Z,1.55
2023-11-01T16:25:42.776Z,0.30
2023-11-01T16:28:09.156Z,0.20
2023-11-01T16:30:35.994Z,0.40
2023-11-01T16:33:03.311Z,0.28
2023-11-01T16:35:30.575Z,0.20
2023-11-01T16:37:56.929Z,0.50
2023-11-01T16:40:23.274Z,0.40
2023-11-01T16:42:49.647Z,0.40
2023-11-01T16:45:16.041Z,0.40
2023-11-01T16:47:45.152Z,0.47
2023-11-01T16:50:11.600Z,0.90
2023-11-01T16:52:38.057Z,0.70
2023-11-01T16:55:04.609Z,0.70
2023-11-01T16:57:30.955Z,0.60
2023-11-01T16:59:57.367Z,1.00
2023-11-01T17:02:23.698Z,0.43
2023-11-01T17:04:50.206Z,0.90
2023-11-01T17:07:16.723Z,0.47
2023-11-01T17:09:44.940Z,0.60
2023-11-01T17:12:12.602Z,0.60
2023-11-01T17:14:39.810Z,0.57
2023-11-01T17:17:06.382Z,0.65
2023-11-01T17:19:32.725Z,0.50
2023-11-01T17:21:59.301Z,0.52
2023-11-01T17:24:26.546Z,0.55
2023-11-01T17:26:58.705Z,0.50
2023-11-01T17:29:30.957Z,0.50
2023-11-01T17:31:58.773Z,0.50
2023-11-01T17:34:29.122Z,0.80
2023-11-01T17:37:02.784Z,0.50
2023-11-01T17:39:35.558Z,0.50
2023-11-01T17:42:04.627Z,0.55
2023-11-01T17:44:34.040Z,0.60
2023-11-01T17:47:00.441Z,1.70
2023-11-01T17:49:40.735Z,0.70
2023-11-01T17:52:07.406Z,0.57
2023-11-01T17:54:33.750Z,0.73
2023-11-01T17:57:00.163Z,0.70
2023-11-01T17:59:26.879Z,0.60
2023-11-01T18:01:53.362Z,0.75
2023-11-01T18:04:21.016Z,1.27
2023-11-01T18:06:48.183Z,0.80
2023-11-01T18:09:18.356Z,0.70
2023-11-01T18:11:44.982Z,0.50
2023-11-01T18:14:14.755Z,0.50
2023-11-01T18:16:41.246Z,0.60
2023-11-01T18:19:07.825Z,0.47
2023-11-01T18:21:34.999Z,0.45
2023-11-01T18:24:03.087Z,0.40
2023-11-01T18:26:30.440Z,0.50
2023-11-01T18:28:58.033Z,0.50
2023-11-01T18:31:26.526Z,0.60
2023-11-01T18:34:00.011Z,0.68
2023-11-01T18:36:27.554Z,1.08
2023-11-01T18:38:58.072Z,1.23
2023-11-01T18:41:26.815Z,0.50
2023-11-01T18:43:53.216Z,0.40
2023-11-01T18:46:19.687Z,0.60
2023-11-01T18:48:49.114Z,0.50
2023-11-01T18:51:34.479Z,0.70
2023-11-01T18:54:00.861Z,0.55
2023-11-01T18:56:27.208Z,0.47
2023-11-01T18:58:53.542Z,1.23
2023-11-01T19:01:20.112Z,0.55
2023-11-01T19:03:47.271Z,0.40
2023-11-01T19:06:15.165Z,0.40
2023-11-01T19:08:42.076Z,0.98
2023-11-01T19:11:08.447Z,0.40
2023-11-01T19:13:34.801Z,0.60
2023-11-01T19:16:07.304Z,1.45
2023-11-01T19:18:34.652Z,0.40
2023-11-01T19:21:01.221Z,0.43
2023-11-01T19:23:28.381Z,0.55
2023-11-01T19:25:54.746Z,0.50
2023-11-01T19:28:21.220Z,0.45
2023-11-01T19:30:48.313Z,0.45
2023-11-01T19:33:22.907Z,0.50
2023-11-01T19:36:04.610Z,0.50
2023-11-01T19:38:37.483Z,0.47
2023-11-01T19:41:04.758Z,0.35
2023-11-01T19:43:31.138Z,0.35
2023-11-01T19:45:57.482Z,0.68
2023-11-01T19:48:26.947Z,0.45
2023-11-01T19:50:54.080Z,0.80
2023-11-01T19:53:20.520Z,0.30
2023-11-01T19:55:46.878Z,0.40
2023-11-01T19:58:13.257Z,1.17
2023-11-01T20:00:39.610Z,0.25
2023-11-01T20:03:06.498Z,0.40
2023-11-01T20:05:34.760Z,0.50
2023-11-01T20:08:01.183Z,0.73
2023-11-01T20:10:27.837Z,0.40
2023-11-01T20:12:54.165Z,0.50
2023-11-01T20:15:22.307Z,0.60
2023-11-01T20:17:49.275Z,1.73
2023-11-01T20:20:15.870Z,0.25
2023-11-01T20:22:43.541Z,0.90
2023-11-01T20:25:13.516Z,0.50
2023-11-01T20:27:40.876Z,0.25
2023-11-01T20:30:08.782Z,0.50
2023-11-01T20:32:35.382Z,1.05
2023-11-01T20:35:01.849Z,0.30
2023-11-01T20:37:28.359Z,0.40
2023-11-01T20:39:54.745Z,0.65
2023-11-01T20:42:21.115Z,0.30
2023-11-01T20:44:47.529Z,0.28
2023-11-01T20:47:13.950Z,0.30
2023-11-01T20:49:40.312Z,0.35
2023-11-01T20:52:06.938Z,0.28
2023-11-01T20:54:33.421Z,0.30
2023-11-01T20:56:59.840Z,0.32
2023-11-01T20:59:26.200Z,1.10
2023-11-01T21:01:52.578Z,0.22
2023-11-01T21:04:19.420Z,0.52
2023-11-01T21:06:45.921Z,0.75
2023-11-01T21:09:12.900Z,0.40
2023-11-01T21:11:39.291Z,1.17
2023-11-01T21:14:05.889Z,0.20
2023-11-01T21:16:32.215Z,0.30
2023-11-01T21:18:58.667Z,0.20
2023-11-01T21:21:25.227Z,0.50
2023-11-01T21:23:51.729Z,0.30
2023-11-01T21:26:18.114Z,0.50
2023-11-01T21:28:44.592Z,0.38
2023-11-01T21:31:11.421Z,1.00
2023-11-01T21:33:39.241Z,0.50
2023-11-01T21:36:05.881Z,0.22
2023-11-01T21:38:32.264Z,0.30
2023-11-01T21:40:58.619Z,0.43
2023-11-01T21:43:27.131Z,0.35
2023-11-01T21:45:53.850Z,0.30
2023-11-01T21:48:23.140Z,0.40
2023-11-01T21:50:55.571Z,0.63
2023-11-01T21:53:22.527Z,0.20
2023-11-01T21:55:55.747Z,0.32
2023-11-01T21:58:25.990Z,0.13
2023-11-01T22:00:53.060Z,0.77
2023-11-01T22:03:21.362Z,0.22
2023-11-01T22:05:47.970Z,0.70
2023-11-01T22:08:36.192Z,0.20
2023-11-01T22:11:03.878Z,0.20
2023-11-01T22:13:30.402Z,0.55
2023-11-01T22:15:56.737Z,0.40
2023-11-01T22:18:26.120Z,0.20
2023-11-01T22:20:55.701Z,0.25
2023-11-01T22:23:24.397Z,0.20
2023-11-01T22:25:50.713Z,0.47
2023-11-01T22:28:17.137Z,0.30
2023-11-01T22:30:43.485Z,0.32
2023-11-01T22:33:11.038Z,0.20
2023-11-01T22:35:40.843Z,0.50
2023-11-01T22:38:08.461Z,1.05
2023-11-01T22:40:35.318Z,0.20
2023-11-01T22:43:01.793Z,0.20
2023-11-01T22:45:28.150Z,0.25
2023-11-01T22:47:54.683Z,0.30
2023-11-01T22:50:21.096Z,0.20
2023-11-01T22:52:47.640Z,0.30
2023-11-01T22:55:14.804Z,0.20
2023-11-01T22:57:41.139Z,0.17
2023-11-01T23:00:13.897Z,0.20
2023-11-01T23:02:42.515Z,0.20
2023-11-01T23:05:09.878Z,0.63
2023-11-01T23:07:36.254Z,0.13
2023-11-01T23:10:02.677Z,0.20
2023-11-01T23:12:29.034Z,0.10
2023-11-01T23:14:55.422Z,0.40
2023-11-01T23:17:21.787Z,0.22
2023-11-01T23:19:48.364Z,0.93
2023-11-01T23:22:14.738Z,0.20
2023-11-01T23:24:41.162Z,0.15
2023-11-01T23:27:07.652Z,0.50
2023-11-01T23:29:35.288Z,0.20
2023-11-01T23:32:04.319Z,0.20
2023-11-01T23:34:40.002Z,0.20
2023-11-01T23:37:15.715Z,0.30
2023-11-01T23:39:42.300Z,0.25
2023-11-01T23:42:13.145Z,0.28
2023-11-01T23:44:39.594Z,0.35
2023-11-01T23:47:06.130Z,0.20
2023-11-01T23:49:50.676Z,1.05
2023-11-01T23:52:18.503Z,0.35
2023-11-01T23:54:45.428Z,0.20
2023-11-01T23:57:12.671Z,0.20
2023-11-01T23:59:39.265Z,1.05
